sensor_id;sensor_type;location;lat;lon;timestamp;temperature;humidity
34766;DHT22;20984;43.508;1.504;2023-08-30T00:00:54;15.20;99.90
34766;DHT22;20984;43.508;1.504;2023-08-30T00:03:19;15.20;99.90
34766;DHT22;20984;43.508;1.504;2023-08-30T00:05:45;15.30;99.90
34766;DHT22;20984;43.508;1.504;2023-08-30T00:08:11;15.30;99.90
34766;DHT22;20984;43.508;1.504;2023-08-30T00:10:38;15.30;99.90
34766;DHT22;20984;43.508;1.504;2023-08-30T00:13:04;15.40;99.90
34766;DHT22;20984;43.508;1.504;2023-08-30T00:15:30;15.40;99.90
34766;DHT22;20984;43.508;1.504;2023-08-30T00:17:55;15.40;99.90
34766;DHT22;20984;43.508;1.504;2023-08-30T00:20:21;15.40;99.90
34766;DHT22;20984;43.508;1.504;2023-08-30T00:22:47;15.40;99.90
34766;DHT22;20984;43.508;1.504;2023-08-30T00:25:14;15.40;99.90
34766;DHT22;20984;43.508;1.504;2023-08-30T00:27:39;15.40;99.90
34766;DHT22;20984;43.508;1.504;2023-08-30T00:30:05;15.40;99.90
34766;DHT22;20984;43.508;1.504;2023-08-30T00:32:30;15.40;99.90
34766;DHT22;20984;43.508;1.504;2023-08-30T00:34:56;15.40;99.90
34766;DHT22;20984;43.508;1.504;2023-08-30T00:37:21;15.40;99.90
34766;DHT22;20984;43.508;1.504;2023-08-30T00:39:47;15.40;99.90
34766;DHT22;20984;43.508;1.504;2023-08-30T00:42:12;15.40;99.90
34766;DHT22;20984;43.508;1.504;2023-08-30T00:44:38;15.40;99.90
34766;DHT22;20984;43.508;1.504;2023-08-30T00:47:04;15.40;99.90
34766;DHT22;20984;43.508;1.504;2023-08-30T00:49:30;15.50;99.90
34766;DHT22;20984;43.508;1.504;2023-08-30T00:51:56;15.40;99.90
34766;DHT22;20984;43.508;1.504;2023-08-30T00:54:22;15.40;99.90
34766;DHT22;20984;43.508;1.504;2023-08-30T00:56:47;15.30;99.90
34766;DHT22;20984;43.508;1.504;2023-08-30T00:59:13;15.30;99.90
34766;DHT22;20984;43.508;1.504;2023-08-30T01:01:39;15.30;99.90
34766;DHT22;20984;43.508;1.504;2023-08-30T01:04:05;15.20;99.90
34766;DHT22;20984;43.508;1.504;2023-08-30T01:06:31;15.20;99.90
34766;DHT22;20984;43.508;1.504;2023-08-30T01:08:56;15.10;99.90
34766;DHT22;20984;43.508;1.504;2023-08-30T01:11:26;15.00;99.90
34766;DHT22;20984;43.508;1.504;2023-08-30T01:13:56;15.10;99.90
34766;DHT22;20984;43.508;1.504;2023-08-30T01:16:23;15.10;99.90
34766;DHT22;20984;43.508;1.504;2023-08-30T01:18:50;15.10;99.90
34766;DHT22;20984;43.508;1.504;2023-08-30T01:21:23;15.10;99.90
34766;DHT22;20984;43.508;1.504;2023-08-30T01:23:55;15.10;99.90
34766;DHT22;20984;43.508;1.504;2023-08-30T01:26:26;15.10;99.90
34766;DHT22;20984;43.508;1.504;2023-08-30T01:28:53;15.20;99.90
34766;DHT22;20984;43.508;1.504;2023-08-30T01:31:21;15.20;99.90
34766;DHT22;20984;43.508;1.504;2023-08-30T01:33:46;15.20;99.90
34766;DHT22;20984;43.508;1.504;2023-08-30T01:36:13;15.20;99.90
34766;DHT22;20984;43.508;1.504;2023-08-30T01:38:40;15.20;99.90
34766;DHT22;20984;43.508;1.504;2023-08-30T01:41:06;15.30;99.90
34766;DHT22;20984;43.508;1.504;2023-08-30T01:43:32;15.30;99.90
34766;DHT22;20984;43.508;1.504;2023-08-30T01:45:58;15.30;99.90
34766;DHT22;20984;43.508;1.504;2023-08-30T01:48:26;15.30;99.90
34766;DHT22;20984;43.508;1.504;2023-08-30T01:50:51;15.30;99.90
34766;DHT22;20984;43.508;1.504;2023-08-30T01:53:17;15.30;99.90
34766;DHT22;20984;43.508;1.504;2023-08-30T01:55:43;15.30;99.90
34766;DHT22;20984;43.508;1.504;2023-08-30T01:58:08;15.30;99.90
34766;DHT22;20984;43.508;1.504;2023-08-30T02:00:37;15.20;99.90
34766;DHT22;20984;43.508;1.504;2023-08-30T02:03:10;15.20;99.90
34766;DHT22;20984;43.508;1.504;2023-08-30T02:05:36;15.20;99.90
34766;DHT22;20984;43.508;1.504;2023-08-30T02:10:29;15.20;99.90
34766;DHT22;20984;43.508;1.504;2023-08-30T02:12:57;15.20;99.90
34766;DHT22;20984;43.508;1.504;2023-08-30T02:15:24;15.20;99.90
34766;DHT22;20984;43.508;1.504;2023-08-30T02:17:51;15.10;99.90
34766;DHT22;20984;43.508;1.504;2023-08-30T02:20:16;15.10;99.90
34766;DHT22;20984;43.508;1.504;2023-08-30T02:22:42;15.10;99.90
34766;DHT22;20984;43.508;1.504;2023-08-30T02:25:08;15.10;99.90
34766;DHT22;20984;43.508;1.504;2023-08-30T02:27:34;15.10;99.90
34766;DHT22;20984;43.508;1.504;2023-08-30T02:30:00;15.10;99.90
34766;DHT22;20984;43.508;1.504;2023-08-30T02:32:26;15.10;99.90
34766;DHT22;20984;43.508;1.504;2023-08-30T02:34:51;15.00;99.90
34766;DHT22;20984;43.508;1.504;2023-08-30T02:37:18;15.00;99.90
34766;DHT22;20984;43.508;1.504;2023-08-30T02:39:43;15.00;99.90
34766;DHT22;20984;43.508;1.504;2023-08-30T02:42:09;15.00;99.90
34766;DHT22;20984;43.508;1.504;2023-08-30T02:44:34;15.00;99.90
34766;DHT22;20984;43.508;1.504;2023-08-30T02:47:00;15.10;99.90
34766;DHT22;20984;43.508;1.504;2023-08-30T02:49:25;15.00;99.90
34766;DHT22;20984;43.508;1.504;2023-08-30T02:51:51;15.10;99.90
34766;DHT22;20984;43.508;1.504;2023-08-30T02:54:17;15.10;99.90
34766;DHT22;20984;43.508;1.504;2023-08-30T02:56:42;15.10;99.90
34766;DHT22;20984;43.508;1.504;2023-08-30T02:59:11;15.20;99.90
34766;DHT22;20984;43.508;1.504;2023-08-30T03:01:37;15.20;99.90
34766;DHT22;20984;43.508;1.504;2023-08-30T03:04:06;15.30;99.90
34766;DHT22;20984;43.508;1.504;2023-08-30T03:06:34;15.30;99.90
34766;DHT22;20984;43.508;1.504;2023-08-30T03:09:01;15.30;99.90
34766;DHT22;20984;43.508;1.504;2023-08-30T03:11:26;15.30;99.90
34766;DHT22;20984;43.508;1.504;2023-08-30T03:13:55;15.30;99.90
34766;DHT22;20984;43.508;1.504;2023-08-30T03:16:20;15.30;99.90
34766;DHT22;20984;43.508;1.504;2023-08-30T03:18:46;15.30;99.90
34766;DHT22;20984;43.508;1.504;2023-08-30T03:21:12;15.30;99.90
34766;DHT22;20984;43.508;1.504;2023-08-30T03:23:37;15.20;99.90
34766;DHT22;20984;43.508;1.504;2023-08-30T03:26:14;15.20;99.90
34766;DHT22;20984;43.508;1.504;2023-08-30T03:28:40;15.20;99.90
34766;DHT22;20984;43.508;1.504;2023-08-30T03:31:16;15.20;99.90
34766;DHT22;20984;43.508;1.504;2023-08-30T03:33:42;15.20;99.90
34766;DHT22;20984;43.508;1.504;2023-08-30T03:36:08;15.20;99.90
34766;DHT22;20984;43.508;1.504;2023-08-30T03:38:34;15.20;99.90
34766;DHT22;20984;43.508;1.504;2023-08-30T03:41:00;15.20;99.90
34766;DHT22;20984;43.508;1.504;2023-08-30T03:43:25;15.20;99.90
34766;DHT22;20984;43.508;1.504;2023-08-30T03:45:51;15.20;99.90
34766;DHT22;20984;43.508;1.504;2023-08-30T03:48:17;15.20;99.90
34766;DHT22;20984;43.508;1.504;2023-08-30T03:50:43;15.20;99.90
34766;DHT22;20984;43.508;1.504;2023-08-30T03:53:08;15.20;99.90
34766;DHT22;20984;43.508;1.504;2023-08-30T03:55:34;15.20;99.90
34766;DHT22;20984;43.508;1.504;2023-08-30T03:57:59;15.20;99.90
34766;DHT22;20984;43.508;1.504;2023-08-30T04:00:25;15.20;99.90
34766;DHT22;20984;43.508;1.504;2023-08-30T04:02:50;15.30;99.90
34766;DHT22;20984;43.508;1.504;2023-08-30T04:05:16;15.30;99.90
34766;DHT22;20984;43.508;1.504;2023-08-30T04:07:41;15.30;99.90
34766;DHT22;20984;43.508;1.504;2023-08-30T04:10:07;15.40;99.90
34766;DHT22;20984;43.508;1.504;2023-08-30T04:12:33;15.40;99.90
34766;DHT22;20984;43.508;1.504;2023-08-30T04:15:00;15.40;99.90
34766;DHT22;20984;43.508;1.504;2023-08-30T04:17:26;15.40;99.90
34766;DHT22;20984;43.508;1.504;2023-08-30T04:19:51;15.40;99.90
34766;DHT22;20984;43.508;1.504;2023-08-30T04:22:17;15.40;99.90
34766;DHT22;20984;43.508;1.504;2023-08-30T04:24:43;15.40;99.90
34766;DHT22;20984;43.508;1.504;2023-08-30T04:27:09;15.40;99.90
34766;DHT22;20984;43.508;1.504;2023-08-30T04:29:34;15.40;99.90
34766;DHT22;20984;43.508;1.504;2023-08-30T04:32:00;15.40;99.90
34766;DHT22;20984;43.508;1.504;2023-08-30T04:34:26;15.50;99.90
34766;DHT22;20984;43.508;1.504;2023-08-30T04:36:51;15.50;99.90
34766;DHT22;20984;43.508;1.504;2023-08-30T04:39:17;15.40;99.90
34766;DHT22;20984;43.508;1.504;2023-08-30T04:41:42;15.40;99.90
34766;DHT22;20984;43.508;1.504;2023-08-30T04:44:08;15.40;99.90
34766;DHT22;20984;43.508;1.504;2023-08-30T04:46:33;15.40;99.90
34766;DHT22;20984;43.508;1.504;2023-08-30T04:48:59;15.40;99.90
34766;DHT22;20984;43.508;1.504;2023-08-30T04:51:24;15.40;99.90
34766;DHT22;20984;43.508;1.504;2023-08-30T04:53:50;15.40;99.90
34766;DHT22;20984;43.508;1.504;2023-08-30T04:56:15;15.40;99.90
34766;DHT22;20984;43.508;1.504;2023-08-30T04:58:43;15.40;99.90
34766;DHT22;20984;43.508;1.504;2023-08-30T05:01:08;15.30;99.90
34766;DHT22;20984;43.508;1.504;2023-08-30T05:03:34;15.30;99.90
34766;DHT22;20984;43.508;1.504;2023-08-30T05:06:00;15.30;99.90
34766;DHT22;20984;43.508;1.504;2023-08-30T05:08:26;15.20;99.90
34766;DHT22;20984;43.508;1.504;2023-08-30T05:10:53;15.20;99.90
34766;DHT22;20984;43.508;1.504;2023-08-30T05:13:19;15.20;99.90
34766;DHT22;20984;43.508;1.504;2023-08-30T05:15:45;15.10;99.90
34766;DHT22;20984;43.508;1.504;2023-08-30T05:18:10;15.20;99.90
34766;DHT22;20984;43.508;1.504;2023-08-30T05:20:36;15.10;99.90
34766;DHT22;20984;43.508;1.504;2023-08-30T05:23:02;15.10;99.90
34766;DHT22;20984;43.508;1.504;2023-08-30T05:25:27;15.10;99.90
34766;DHT22;20984;43.508;1.504;2023-08-30T05:27:53;15.10;99.90
34766;DHT22;20984;43.508;1.504;2023-08-30T05:30:19;15.10;99.90
34766;DHT22;20984;43.508;1.504;2023-08-30T05:32:44;15.00;99.90
34766;DHT22;20984;43.508;1.504;2023-08-30T05:35:10;15.10;99.90
34766;DHT22;20984;43.508;1.504;2023-08-30T05:37:36;15.10;99.90
34766;DHT22;20984;43.508;1.504;2023-08-30T05:40:01;15.10;99.90
34766;DHT22;20984;43.508;1.504;2023-08-30T05:42:28;15.10;99.90
34766;DHT22;20984;43.508;1.504;2023-08-30T05:44:53;15.10;99.90
34766;DHT22;20984;43.508;1.504;2023-08-30T05:47:19;15.20;99.90
34766;DHT22;20984;43.508;1.504;2023-08-30T05:49:45;15.20;99.90
34766;DHT22;20984;43.508;1.504;2023-08-30T05:52:11;15.20;99.90
34766;DHT22;20984;43.508;1.504;2023-08-30T05:54:36;15.20;99.90
34766;DHT22;20984;43.508;1.504;2023-08-30T05:57:02;15.20;99.90
34766;DHT22;20984;43.508;1.504;2023-08-30T05:59:28;15.20;99.90
34766;DHT22;20984;43.508;1.504;2023-08-30T06:01:54;15.30;99.90
34766;DHT22;20984;43.508;1.504;2023-08-30T06:04:19;15.30;99.90
34766;DHT22;20984;43.508;1.504;2023-08-30T06:06:45;15.30;99.90
34766;DHT22;20984;43.508;1.504;2023-08-30T06:09:11;15.30;99.90
34766;DHT22;20984;43.508;1.504;2023-08-30T06:11:38;15.40;99.90
34766;DHT22;20984;43.508;1.504;2023-08-30T06:14:04;15.40;99.90
34766;DHT22;20984;43.508;1.504;2023-08-30T06:16:29;15.40;99.90
34766;DHT22;20984;43.508;1.504;2023-08-30T06:18:55;15.50;99.90
34766;DHT22;20984;43.508;1.504;2023-08-30T06:21:20;15.50;99.90
34766;DHT22;20984;43.508;1.504;2023-08-30T06:23:46;15.50;99.90
34766;DHT22;20984;43.508;1.504;2023-08-30T06:26:11;15.60;99.90
34766;DHT22;20984;43.508;1.504;2023-08-30T06:28:37;15.70;99.90
34766;DHT22;20984;43.508;1.504;2023-08-30T06:31:02;15.70;99.90
34766;DHT22;20984;43.508;1.504;2023-08-30T06:33:28;15.70;99.90
34766;DHT22;20984;43.508;1.504;2023-08-30T06:35:53;15.80;99.90
34766;DHT22;20984;43.508;1.504;2023-08-30T06:38:20;15.80;99.90
34766;DHT22;20984;43.508;1.504;2023-08-30T06:40:46;15.90;99.90
34766;DHT22;20984;43.508;1.504;2023-08-30T06:43:12;16.00;99.90
34766;DHT22;20984;43.508;1.504;2023-08-30T06:45:41;16.00;99.90
34766;DHT22;20984;43.508;1.504;2023-08-30T06:48:07;16.10;99.90
34766;DHT22;20984;43.508;1.504;2023-08-30T06:50:36;16.20;99.90
34766;DHT22;20984;43.508;1.504;2023-08-30T06:53:02;16.30;99.90
34766;DHT22;20984;43.508;1.504;2023-08-30T06:55:28;16.40;99.90
34766;DHT22;20984;43.508;1.504;2023-08-30T06:57:54;16.40;99.90
34766;DHT22;20984;43.508;1.504;2023-08-30T07:00:20;16.50;99.90
34766;DHT22;20984;43.508;1.504;2023-08-30T07:02:46;16.50;99.90
34766;DHT22;20984;43.508;1.504;2023-08-30T07:05:14;16.50;99.90
34766;DHT22;20984;43.508;1.504;2023-08-30T07:07:40;16.50;99.90
34766;DHT22;20984;43.508;1.504;2023-08-30T07:10:05;16.70;99.90
34766;DHT22;20984;43.508;1.504;2023-08-30T07:12:31;16.70;99.90
34766;DHT22;20984;43.508;1.504;2023-08-30T07:14:57;16.80;99.90
34766;DHT22;20984;43.508;1.504;2023-08-30T07:17:22;16.80;99.90
34766;DHT22;20984;43.508;1.504;2023-08-30T07:19:48;16.90;99.90
34766;DHT22;20984;43.508;1.504;2023-08-30T07:22:14;16.90;99.90
34766;DHT22;20984;43.508;1.504;2023-08-30T07:24:44;16.90;99.90
34766;DHT22;20984;43.508;1.504;2023-08-30T07:27:10;16.90;99.90
34766;DHT22;20984;43.508;1.504;2023-08-30T07:29:36;17.00;99.90
34766;DHT22;20984;43.508;1.504;2023-08-30T07:32:02;17.10;99.90
34766;DHT22;20984;43.508;1.504;2023-08-30T07:34:27;17.10;99.90
34766;DHT22;20984;43.508;1.504;2023-08-30T07:36:53;17.10;99.90
34766;DHT22;20984;43.508;1.504;2023-08-30T07:39:19;17.20;99.90
34766;DHT22;20984;43.508;1.504;2023-08-30T07:41:45;17.30;99.90
34766;DHT22;20984;43.508;1.504;2023-08-30T07:44:10;17.30;99.90
34766;DHT22;20984;43.508;1.504;2023-08-30T07:46:36;17.30;99.90
34766;DHT22;20984;43.508;1.504;2023-08-30T07:49:01;17.30;99.90
34766;DHT22;20984;43.508;1.504;2023-08-30T07:51:27;17.40;99.90
34766;DHT22;20984;43.508;1.504;2023-08-30T07:53:53;17.40;99.90
34766;DHT22;20984;43.508;1.504;2023-08-30T07:56:18;17.40;99.90
34766;DHT22;20984;43.508;1.504;2023-08-30T07:58:44;17.50;99.90
34766;DHT22;20984;43.508;1.504;2023-08-30T08:01:10;17.60;99.90
34766;DHT22;20984;43.508;1.504;2023-08-30T08:03:35;17.60;99.90
34766;DHT22;20984;43.508;1.504;2023-08-30T08:06:01;17.70;99.90
34766;DHT22;20984;43.508;1.504;2023-08-30T08:08:26;17.90;99.90
34766;DHT22;20984;43.508;1.504;2023-08-30T08:10:52;18.00;99.90
34766;DHT22;20984;43.508;1.504;2023-08-30T08:13:17;18.20;99.90
34766;DHT22;20984;43.508;1.504;2023-08-30T08:15:43;18.30;99.90
34766;DHT22;20984;43.508;1.504;2023-08-30T08:18:09;18.40;99.90
34766;DHT22;20984;43.508;1.504;2023-08-30T08:20:35;18.30;99.90
34766;DHT22;20984;43.508;1.504;2023-08-30T08:23:02;18.30;99.90
34766;DHT22;20984;43.508;1.504;2023-08-30T08:25:27;18.40;99.90
34766;DHT22;20984;43.508;1.504;2023-08-30T08:27:53;18.40;99.90
34766;DHT22;20984;43.508;1.504;2023-08-30T08:30:18;18.40;99.90
34766;DHT22;20984;43.508;1.504;2023-08-30T08:32:46;18.50;99.90
34766;DHT22;20984;43.508;1.504;2023-08-30T08:35:13;18.60;99.90
34766;DHT22;20984;43.508;1.504;2023-08-30T08:37:38;18.60;99.90
34766;DHT22;20984;43.508;1.504;2023-08-30T08:40:04;18.70;99.90
34766;DHT22;20984;43.508;1.504;2023-08-30T08:42:34;18.70;99.90
34766;DHT22;20984;43.508;1.504;2023-08-30T08:44:59;18.70;99.90
34766;DHT22;20984;43.508;1.504;2023-08-30T08:47:25;18.80;99.90
34766;DHT22;20984;43.508;1.504;2023-08-30T08:49:51;18.60;99.90
34766;DHT22;20984;43.508;1.504;2023-08-30T08:52:16;18.60;99.90
34766;DHT22;20984;43.508;1.504;2023-08-30T08:54:42;18.60;99.90
34766;DHT22;20984;43.508;1.504;2023-08-30T08:57:08;18.70;99.90
34766;DHT22;20984;43.508;1.504;2023-08-30T08:59:34;18.90;99.90
34766;DHT22;20984;43.508;1.504;2023-08-30T09:02:00;19.10;99.90
34766;DHT22;20984;43.508;1.504;2023-08-30T09:04:26;19.10;99.90
34766;DHT22;20984;43.508;1.504;2023-08-30T09:06:54;19.30;99.90
34766;DHT22;20984;43.508;1.504;2023-08-30T09:09:20;19.50;99.90
34766;DHT22;20984;43.508;1.504;2023-08-30T09:11:45;19.60;99.90
34766;DHT22;20984;43.508;1.504;2023-08-30T09:14:11;19.70;99.90
34766;DHT22;20984;43.508;1.504;2023-08-30T09:16:36;19.80;99.90
34766;DHT22;20984;43.508;1.504;2023-08-30T09:19:03;19.90;99.90
34766;DHT22;20984;43.508;1.504;2023-08-30T09:21:29;19.90;99.90
34766;DHT22;20984;43.508;1.504;2023-08-30T09:24:01;19.90;99.90
34766;DHT22;20984;43.508;1.504;2023-08-30T09:26:28;20.00;99.90
34766;DHT22;20984;43.508;1.504;2023-08-30T09:28:55;20.00;99.90
34766;DHT22;20984;43.508;1.504;2023-08-30T09:31:20;19.80;99.90
34766;DHT22;20984;43.508;1.504;2023-08-30T09:33:46;19.80;99.90
34766;DHT22;20984;43.508;1.504;2023-08-30T09:36:14;19.80;99.90
34766;DHT22;20984;43.508;1.504;2023-08-30T09:38:40;19.40;99.90
34766;DHT22;20984;43.508;1.504;2023-08-30T09:41:06;19.10;99.90
34766;DHT22;20984;43.508;1.504;2023-08-30T09:43:31;19.10;99.90
34766;DHT22;20984;43.508;1.504;2023-08-30T09:45:57;19.00;99.90
34766;DHT22;20984;43.508;1.504;2023-08-30T09:48:27;19.00;99.90
34766;DHT22;20984;43.508;1.504;2023-08-30T09:50:53;19.10;99.90
34766;DHT22;20984;43.508;1.504;2023-08-30T09:53:23;19.10;99.90
34766;DHT22;20984;43.508;1.504;2023-08-30T09:55:51;19.20;99.90
34766;DHT22;20984;43.508;1.504;2023-08-30T09:58:17;19.20;99.90
34766;DHT22;20984;43.508;1.504;2023-08-30T10:00:43;19.20;99.90
34766;DHT22;20984;43.508;1.504;2023-08-30T10:03:09;19.40;99.90
34766;DHT22;20984;43.508;1.504;2023-08-30T10:05:35;19.50;99.90
34766;DHT22;20984;43.508;1.504;2023-08-30T10:08:01;19.70;99.90
34766;DHT22;20984;43.508;1.504;2023-08-30T10:10:27;19.80;99.90
34766;DHT22;20984;43.508;1.504;2023-08-30T10:12:54;20.20;99.90
34766;DHT22;20984;43.508;1.504;2023-08-30T10:15:21;20.20;99.90
34766;DHT22;20984;43.508;1.504;2023-08-30T10:17:47;20.20;99.90
34766;DHT22;20984;43.508;1.504;2023-08-30T10:20:13;20.30;99.90
34766;DHT22;20984;43.508;1.504;2023-08-30T10:22:40;20.20;99.90
34766;DHT22;20984;43.508;1.504;2023-08-30T10:25:06;20.20;99.90
34766;DHT22;20984;43.508;1.504;2023-08-30T10:27:34;20.20;99.90
34766;DHT22;20984;43.508;1.504;2023-08-30T10:30:03;20.00;99.90
34766;DHT22;20984;43.508;1.504;2023-08-30T10:32:30;20.00;99.90
34766;DHT22;20984;43.508;1.504;2023-08-30T10:35:00;20.00;99.90
34766;DHT22;20984;43.508;1.504;2023-08-30T10:37:26;20.20;99.90
34766;DHT22;20984;43.508;1.504;2023-08-30T10:39:52;20.00;99.90
34766;DHT22;20984;43.508;1.504;2023-08-30T10:42:22;20.20;99.90
34766;DHT22;20984;43.508;1.504;2023-08-30T10:45:04;20.40;99.90
34766;DHT22;20984;43.508;1.504;2023-08-30T10:47:30;20.40;99.90
34766;DHT22;20984;43.508;1.504;2023-08-30T10:49:57;20.40;99.90
34766;DHT22;20984;43.508;1.504;2023-08-30T10:52:23;20.50;99.90
34766;DHT22;20984;43.508;1.504;2023-08-30T10:54:49;20.50;99.90
34766;DHT22;20984;43.508;1.504;2023-08-30T10:57:19;20.30;99.90
34766;DHT22;20984;43.508;1.504;2023-08-30T11:00:04;20.20;99.90
34766;DHT22;20984;43.508;1.504;2023-08-30T11:02:31;20.00;99.90
34766;DHT22;20984;43.508;1.504;2023-08-30T11:04:57;20.00;99.90
34766;DHT22;20984;43.508;1.504;2023-08-30T11:07:24;19.90;99.90
34766;DHT22;20984;43.508;1.504;2023-08-30T11:09:51;19.90;99.90
34766;DHT22;20984;43.508;1.504;2023-08-30T11:12:17;20.00;99.90
34766;DHT22;20984;43.508;1.504;2023-08-30T11:14:43;20.00;99.90
34766;DHT22;20984;43.508;1.504;2023-08-30T11:17:11;20.20;99.90
34766;DHT22;20984;43.508;1.504;2023-08-30T11:19:37;20.70;99.90
34766;DHT22;20984;43.508;1.504;2023-08-30T11:22:02;21.20;99.90
34766;DHT22;20984;43.508;1.504;2023-08-30T11:24:28;21.40;99.90
34766;DHT22;20984;43.508;1.504;2023-08-30T11:26:54;21.40;99.90
34766;DHT22;20984;43.508;1.504;2023-08-30T11:29:20;21.10;99.90
34766;DHT22;20984;43.508;1.504;2023-08-30T11:31:46;21.00;99.90
34766;DHT22;20984;43.508;1.504;2023-08-30T11:34:12;21.10;99.90
34766;DHT22;20984;43.508;1.504;2023-08-30T11:36:37;21.00;99.90
34766;DHT22;20984;43.508;1.504;2023-08-30T11:39:03;20.90;99.90
34766;DHT22;20984;43.508;1.504;2023-08-30T11:41:29;21.00;99.90
34766;DHT22;20984;43.508;1.504;2023-08-30T11:43:56;21.00;99.90
34766;DHT22;20984;43.508;1.504;2023-08-30T11:46:23;21.10;99.90
34766;DHT22;20984;43.508;1.504;2023-08-30T11:48:49;21.20;99.90
34766;DHT22;20984;43.508;1.504;2023-08-30T11:51:16;21.60;99.90
34766;DHT22;20984;43.508;1.504;2023-08-30T11:53:41;21.90;99.90
34766;DHT22;20984;43.508;1.504;2023-08-30T11:56:07;22.00;99.90
34766;DHT22;20984;43.508;1.504;2023-08-30T11:58:33;22.20;99.90
34766;DHT22;20984;43.508;1.504;2023-08-30T12:00:59;22.20;99.90
34766;DHT22;20984;43.508;1.504;2023-08-30T12:03:28;22.10;99.90
34766;DHT22;20984;43.508;1.504;2023-08-30T12:05:54;22.10;99.90
34766;DHT22;20984;43.508;1.504;2023-08-30T12:08:20;22.00;99.90
34766;DHT22;20984;43.508;1.504;2023-08-30T12:10:46;22.10;99.90
34766;DHT22;20984;43.508;1.504;2023-08-30T12:15:53;22.00;99.90
34766;DHT22;20984;43.508;1.504;2023-08-30T12:18:36;22.10;99.90
34766;DHT22;20984;43.508;1.504;2023-08-30T12:21:03;22.10;99.90
34766;DHT22;20984;43.508;1.504;2023-08-30T12:23:29;22.00;99.90
34766;DHT22;20984;43.508;1.504;2023-08-30T12:25:58;22.20;99.90
34766;DHT22;20984;43.508;1.504;2023-08-30T12:28:25;22.30;99.90
34766;DHT22;20984;43.508;1.504;2023-08-30T12:30:51;22.50;99.90
34766;DHT22;20984;43.508;1.504;2023-08-30T12:33:16;23.00;99.90
34766;DHT22;20984;43.508;1.504;2023-08-30T12:35:43;23.10;99.90
34766;DHT22;20984;43.508;1.504;2023-08-30T12:38:08;22.90;99.90
34766;DHT22;20984;43.508;1.504;2023-08-30T12:40:35;22.60;99.90
34766;DHT22;20984;43.508;1.504;2023-08-30T12:43:00;22.70;99.90
34766;DHT22;20984;43.508;1.504;2023-08-30T12:45:26;22.70;99.90
34766;DHT22;20984;43.508;1.504;2023-08-30T12:47:51;22.70;99.90
34766;DHT22;20984;43.508;1.504;2023-08-30T12:50:17;22.50;99.90
34766;DHT22;20984;43.508;1.504;2023-08-30T12:52:42;22.40;99.90
34766;DHT22;20984;43.508;1.504;2023-08-30T12:55:08;22.20;99.90
34766;DHT22;20984;43.508;1.504;2023-08-30T12:57:33;22.20;99.90
34766;DHT22;20984;43.508;1.504;2023-08-30T12:59:59;22.30;99.90
34766;DHT22;20984;43.508;1.504;2023-08-30T13:02:25;22.30;99.90
34766;DHT22;20984;43.508;1.504;2023-08-30T13:04:50;22.20;99.90
34766;DHT22;20984;43.508;1.504;2023-08-30T13:07:16;22.30;99.90
34766;DHT22;20984;43.508;1.504;2023-08-30T13:09:42;22.30;99.90
34766;DHT22;20984;43.508;1.504;2023-08-30T13:12:08;22.40;99.90
34766;DHT22;20984;43.508;1.504;2023-08-30T13:14:33;22.40;99.90
34766;DHT22;20984;43.508;1.504;2023-08-30T13:16:59;22.60;99.90
34766;DHT22;20984;43.508;1.504;2023-08-30T13:19:24;23.10;99.90
34766;DHT22;20984;43.508;1.504;2023-08-30T13:21:50;23.50;99.90
34766;DHT22;20984;43.508;1.504;2023-08-30T13:24:15;23.70;99.90
34766;DHT22;20984;43.508;1.504;2023-08-30T13:26:41;23.60;99.90
34766;DHT22;20984;43.508;1.504;2023-08-30T13:29:07;23.20;99.90
34766;DHT22;20984;43.508;1.504;2023-08-30T13:31:32;23.40;99.90
34766;DHT22;20984;43.508;1.504;2023-08-30T13:33:58;23.40;99.90
34766;DHT22;20984;43.508;1.504;2023-08-30T13:36:25;23.20;99.90
34766;DHT22;20984;43.508;1.504;2023-08-30T13:38:51;23.10;99.90
34766;DHT22;20984;43.508;1.504;2023-08-30T13:41:16;23.10;99.90
34766;DHT22;20984;43.508;1.504;2023-08-30T13:43:42;23.30;99.90
34766;DHT22;20984;43.508;1.504;2023-08-30T13:46:07;23.30;99.90
34766;DHT22;20984;43.508;1.504;2023-08-30T13:48:33;23.40;99.90
34766;DHT22;20984;43.508;1.504;2023-08-30T13:50:58;23.60;99.90
34766;DHT22;20984;43.508;1.504;2023-08-30T13:53:24;23.60;99.90
34766;DHT22;20984;43.508;1.504;2023-08-30T13:55:51;23.70;99.90
34766;DHT22;20984;43.508;1.504;2023-08-30T13:58:16;23.50;99.90
34766;DHT22;20984;43.508;1.504;2023-08-30T14:00:43;23.60;99.90
34766;DHT22;20984;43.508;1.504;2023-08-30T14:03:09;23.40;99.90
34766;DHT22;20984;43.508;1.504;2023-08-30T14:05:35;23.40;99.90
34766;DHT22;20984;43.508;1.504;2023-08-30T14:08:00;23.50;99.90
34766;DHT22;20984;43.508;1.504;2023-08-30T14:10:26;23.50;99.90
34766;DHT22;20984;43.508;1.504;2023-08-30T14:12:51;23.40;99.90
34766;DHT22;20984;43.508;1.504;2023-08-30T14:15:17;23.30;99.90
34766;DHT22;20984;43.508;1.504;2023-08-30T14:17:43;23.60;99.90
34766;DHT22;20984;43.508;1.504;2023-08-30T14:20:09;23.80;99.90
34766;DHT22;20984;43.508;1.504;2023-08-30T14:22:34;23.70;99.90
34766;DHT22;20984;43.508;1.504;2023-08-30T14:25:01;23.60;99.90
34766;DHT22;20984;43.508;1.504;2023-08-30T14:27:27;23.80;99.90
34766;DHT22;20984;43.508;1.504;2023-08-30T14:29:53;24.30;99.90
34766;DHT22;20984;43.508;1.504;2023-08-30T17:44:10;20.90;99.90
34766;DHT22;20984;43.508;1.504;2023-08-30T17:46:35;20.80;99.90
34766;DHT22;20984;43.508;1.504;2023-08-30T17:49:02;20.70;99.90
34766;DHT22;20984;43.508;1.504;2023-08-30T17:51:28;20.60;99.90
34766;DHT22;20984;43.508;1.504;2023-08-30T17:53:53;20.40;99.90
34766;DHT22;20984;43.508;1.504;2023-08-30T17:56:19;20.30;99.90
34766;DHT22;20984;43.508;1.504;2023-08-30T17:58:48;20.10;99.90
34766;DHT22;20984;43.508;1.504;2023-08-30T18:01:13;19.90;99.90
34766;DHT22;20984;43.508;1.504;2023-08-30T18:03:39;19.80;99.90
34766;DHT22;20984;43.508;1.504;2023-08-30T18:06:04;19.70;99.90
34766;DHT22;20984;43.508;1.504;2023-08-30T18:08:33;19.50;99.90
34766;DHT22;20984;43.508;1.504;2023-08-30T18:10:59;19.40;99.90
34766;DHT22;20984;43.508;1.504;2023-08-30T18:13:24;19.40;99.90
34766;DHT22;20984;43.508;1.504;2023-08-30T18:15:50;19.30;99.90
34766;DHT22;20984;43.508;1.504;2023-08-30T18:18:15;19.20;99.90
34766;DHT22;20984;43.508;1.504;2023-08-30T18:20:41;19.10;99.90
34766;DHT22;20984;43.508;1.504;2023-08-30T18:23:06;19.00;99.90
34766;DHT22;20984;43.508;1.504;2023-08-30T18:25:32;18.90;99.90
34766;DHT22;20984;43.508;1.504;2023-08-30T18:27:58;18.90;99.90
34766;DHT22;20984;43.508;1.504;2023-08-30T18:30:23;18.90;99.90
34766;DHT22;20984;43.508;1.504;2023-08-30T18:32:49;18.80;99.90
34766;DHT22;20984;43.508;1.504;2023-08-30T18:35:14;18.70;99.90
34766;DHT22;20984;43.508;1.504;2023-08-30T18:37:40;18.70;99.90
34766;DHT22;20984;43.508;1.504;2023-08-30T18:40:07;18.60;99.90